• vieta
  • image
  • image
  • image
mod_vvisit_countermod_vvisit_countermod_vvisit_countermod_vvisit_countermod_vvisit_countermod_vvisit_counter
mod_vvisit_counterŠiandien49
mod_vvisit_counterVakar603
mod_vvisit_counterŠią savaitę652
mod_vvisit_counterPraėjusią savaitę2682
mod_vvisit_counterŠį mėnesį12608
mod_vvisit_counterPraėjusį mėnesį15733
mod_vvisit_counterViso459863

Mes turime: 4 svečius, 1 bots online
Jūsų IP: 54.91.156.176
 , 
Šiandien: Rugs 27, 2016

Šiandien

Antradienis, 27 Rugsėjis 2016

Orų prognozė

Šiauliai °C
   

Orų prognozė aviacijai

[source: ADDS]
METAR
EYSA 270120Z AUTO 25002KT 9999NDV BR NCD 04/04 Q1029 =
TAF
TAF EYSA 262307Z 2700/2709 VRB04KT 5000 BR BKN025 TEMPO 2700/2706 0500 FG BKN002 =
SR / SS: 04:24 / 16:13 UTC (EYSA 2016-09-27)

Paieška

Lankytojai

Mes turime 5 svečius online

tic logo lt